Time;durP1;ratioP1;P1;durP2;ratioP2;P2;SDS_P1;SDS_P2;PMS_P1;PMS_P2;Temp;Humidity;BMP_temperature;BMP_pressure;BME280_temperature;BME280_humidity;BME280_pressure;Samples;Min_cycle;Max_cycle;Signal;HPM_P1;HPM_P2
2022/01/17 00:00:18;;;;;;;26.23;13.57;;;7.80;91.60;;;;;;5057347;28;20143;-67
2022/01/17 00:02:46;;;;;;;31.77;13.80;;;7.80;91.50;;;;;;5054098;28;20587;-67
2022/01/17 00:05:12;;;;;;;30.98;13.18;;;7.80;91.40;;;;;;5053026;28;20474;-67
2022/01/17 00:07:38;;;;;;;32.70;14.00;;;7.80;91.40;;;;;;5050171;28;20024;-67
2022/01/17 00:10:05;;;;;;;29.20;14.02;;;7.80;91.40;;;;;;5055413;28;20592;-66
2022/01/17 00:12:34;;;;;;;31.20;14.85;;;7.80;91.60;;;;;;5059835;28;20064;-66
2022/01/17 00:15:00;;;;;;;23.67;12.95;;;7.80;91.50;;;;;;5054908;28;20029;-67
2022/01/17 00:17:34;;;;;;;32.45;13.85;;;7.80;91.20;;;;;;5058828;28;20036;-67
2022/01/17 00:20:09;;;;;;;24.80;11.98;;;7.80;91.30;;;;;;5055379;28;20167;-67
2022/01/17 00:22:35;;;;;;;24.40;12.15;;;7.80;91.30;;;;;;5048778;28;20039;-67
2022/01/17 00:25:02;;;;;;;23.13;11.88;;;7.80;91.20;;;;;;5057116;28;20079;-66
2022/01/17 00:27:28;;;;;;;25.48;12.38;;;7.80;91.30;;;;;;5060718;28;20035;-67
2022/01/17 00:29:54;;;;;;;26.85;12.00;;;7.90;91.20;;;;;;5050490;28;20037;-67
2022/01/17 00:32:19;;;;;;;22.95;11.73;;;7.90;91.10;;;;;;5051931;28;20116;-67
2022/01/17 00:34:46;;;;;;;25.52;12.15;;;7.90;91.20;;;;;;5053885;28;20036;-67
2022/01/17 00:37:12;;;;;;;25.88;12.43;;;7.90;91.10;;;;;;5045225;28;20103;-67
2022/01/17 00:39:38;;;;;;;26.83;10.63;;;8.00;91.00;;;;;;5068547;28;20214;-67
2022/01/17 00:42:04;;;;;;;26.38;12.05;;;7.90;91.10;;;;;;5052469;28;20028;-67
2022/01/17 00:44:29;;;;;;;19.63;10.40;;;7.90;90.70;;;;;;5051197;28;20738;-67
2022/01/17 00:46:55;;;;;;;21.88;10.45;;;7.90;90.80;;;;;;5048708;28;20109;-66
2022/01/17 00:49:21;;;;;;;22.83;9.85;;;7.90;90.90;;;;;;5051383;28;20485;-67
2022/01/17 00:51:47;;;;;;;23.20;10.32;;;7.90;90.80;;;;;;5052826;28;20056;-66
2022/01/17 00:54:13;;;;;;;20.30;9.73;;;7.90;90.90;;;;;;5071671;28;20496;-66
2022/01/17 00:56:39;;;;;;;18.98;8.32;;;7.90;90.80;;;;;;5060062;28;20099;-66
2022/01/17 00:59:05;;;;;;;17.25;8.25;;;8.00;90.40;;;;;;5055128;28;20043;-66
2022/01/17 01:01:31;;;;;;;25.13;8.75;;;8.10;90.60;;;;;;5052966;28;20047;-67
2022/01/17 01:03:57;;;;;;;17.80;7.90;;;8.10;90.20;;;;;;5051191;28;20036;-66
2022/01/17 01:06:23;;;;;;;17.23;7.57;;;8.00;89.90;;;;;;5044884;28;20040;-66
2022/01/17 01:08:49;;;;;;;24.80;7.95;;;8.10;90.00;;;;;;5056038;28;20544;-66
2022/01/17 01:11:14;;;;;;;22.98;8.15;;;8.00;89.90;;;;;;5053053;28;20140;-67
2022/01/17 01:13:40;;;;;;;14.00;6.63;;;8.00;89.80;;;;;;5047785;28;20036;-66
2022/01/17 01:16:22;;;;;;;18.88;7.15;;;8.00;89.70;;;;;;5046988;28;20020;-67
2022/01/17 01:29:45;;;;;;;16.15;6.22;;;8.10;89.40;;;;;;5046942;28;20423;-66
2022/01/17 01:32:12;;;;;;;13.98;6.38;;;8.10;89.00;;;;;;5050871;28;20056;-67
2022/01/17 01:34:43;;;;;;;14.13;5.28;;;8.10;89.10;;;;;;5051382;28;20575;-67
2022/01/17 01:37:09;;;;;;;13.23;5.43;;;8.10;88.50;;;;;;5055320;28;20477;-66
2022/01/17 01:39:37;;;;;;;16.27;5.32;;;8.00;88.40;;;;;;5054046;28;20035;-67
2022/01/17 01:42:04;;;;;;;10.88;4.30;;;8.00;88.60;;;;;;5056162;28;20044;-66
2022/01/17 01:44:30;;;;;;;11.88;4.20;;;8.00;88.10;;;;;;5072830;28;20032;-65
2022/01/17 01:46:57;;;;;;;18.40;4.97;;;8.00;88.30;;;;;;5056093;28;20958;-66
2022/01/17 01:49:24;;;;;;;12.43;4.50;;;8.00;87.90;;;;;;5056568;28;20484;-67
2022/01/17 01:51:50;;;;;;;11.05;4.38;;;8.10;88.30;;;;;;5066772;28;20165;-67
2022/01/17 01:54:16;;;;;;;8.82;4.13;;;8.10;87.90;;;;;;5057075;28;20128;-65
2022/01/17 01:56:45;;;;;;;10.45;4.40;;;8.10;87.40;;;;;;5056942;28;20032;-65
2022/01/17 01:59:12;;;;;;;13.95;4.40;;;8.00;87.40;;;;;;5046917;28;20036;-66
2022/01/17 02:01:38;;;;;;;15.77;4.47;;;8.00;87.80;;;;;;5051247;28;20401;-67
2022/01/17 02:04:04;;;;;;;15.30;4.20;;;8.00;87.20;;;;;;5054387;28;20037;-67
2022/01/17 02:06:34;;;;;;;7.50;2.92;;;7.90;87.50;;;;;;5057311;28;20032;-67
2022/01/17 02:09:07;;;;;;;8.98;3.40;;;7.90;87.50;;;;;;5055620;28;20033;-67
2022/01/17 02:11:37;;;;;;;7.43;2.75;;;8.00;87.70;;;;;;5054411;28;20059;-66
2022/01/17 02:14:03;;;;;;;7.72;2.90;;;8.00;87.50;;;;;;5045395;28;20451;-67
2022/01/17 02:16:30;;;;;;;10.00;2.25;;;8.00;87.20;;;;;;5056782;28;20041;-67
2022/01/17 02:18:56;;;;;;;5.88;1.92;;;7.90;86.90;;;;;;5054316;28;20560;-66
2022/01/17 02:21:45;;;;;;;9.57;1.90;;;7.90;86.40;;;;;;5055232;28;20115;-66
2022/01/17 02:24:16;;;;;;;7.88;2.35;;;7.90;87.00;;;;;;5048325;28;20036;-67
2022/01/17 02:26:44;;;;;;;7.85;2.10;;;8.00;86.60;;;;;;5051689;28;20028;-67
2022/01/17 02:29:10;;;;;;;1.80;0.80;;;7.90;86.00;;;;;;5043963;28;20028;-66
2022/01/17 02:31:36;;;;;;;10.32;1.25;;;7.80;84.60;;;;;;5055653;28;20029;-67
2022/01/17 02:34:03;;;;;;;6.57;1.10;;;7.80;84.90;;;;;;5055655;28;20028;-67
2022/01/17 02:36:30;;;;;;;5.28;1.10;;;7.70;84.10;;;;;;5051236;28;20032;-67
2022/01/17 02:38:55;;;;;;;6.97;1.27;;;7.60;82.30;;;;;;5048481;28;20709;-67
2022/01/17 02:41:21;;;;;;;3.63;0.70;;;7.60;81.40;;;;;;5050271;28;20068;-69
2022/01/17 02:43:47;;;;;;;8.48;1.63;;;7.60;80.80;;;;;;5041365;28;20116;-66
2022/01/17 02:46:27;;;;;;;9.35;1.30;;;7.60;80.10;;;;;;5055555;28;20036;-67
2022/01/17 02:48:55;;;;;;;5.28;1.05;;;7.60;80.50;;;;;;5052413;28;20082;-66
2022/01/17 02:51:20;;;;;;;7.13;0.90;;;7.60;80.00;;;;;;5051995;28;20113;-67
2022/01/17 02:53:46;;;;;;;6.85;1.13;;;7.50;80.60;;;;;;5049163;28;20120;-66
2022/01/17 02:56:12;;;;;;;8.15;1.77;;;7.50;80.40;;;;;;5049818;28;20401;-66
2022/01/17 02:58:40;;;;;;;3.22;0.80;;;7.50;80.40;;;;;;5050689;28;20068;-67
2022/01/17 03:01:24;;;;;;;6.72;1.13;;;7.50;81.00;;;;;;5050694;28;20036;-66
2022/01/17 03:03:50;;;;;;;6.35;1.02;;;7.60;80.50;;;;;;5055785;28;20032;-66
2022/01/17 03:06:16;;;;;;;6.00;1.25;;;7.60;80.10;;;;;;5050045;28;20299;-66
2022/01/17 03:08:43;;;;;;;3.45;0.90;;;7.60;79.80;;;;;;5054270;28;20129;-67
2022/01/17 03:11:12;;;;;;;11.15;1.35;;;7.50;79.90;;;;;;5049451;28;20476;-67
2022/01/17 03:13:39;;;;;;;4.63;1.40;;;7.50;80.60;;;;;;5053337;28;20071;-67
2022/01/17 03:16:12;;;;;;;6.50;0.90;;;7.50;80.60;;;;;;5040498;28;20028;-66
2022/01/17 03:18:41;;;;;;;6.22;1.15;;;7.50;80.90;;;;;;5058297;28;20032;-67
2022/01/17 03:21:09;;;;;;;3.35;1.58;;;7.50;80.70;;;;;;5049780;28;20039;-66
2022/01/17 03:23:36;;;;;;;4.82;1.10;;;7.50;80.70;;;;;;5055185;28;20044;-66
2022/01/17 03:26:03;;;;;;;3.35;1.20;;;7.50;80.30;;;;;;5052123;28;20039;-66
2022/01/17 03:28:30;;;;;;;9.77;1.58;;;7.60;80.50;;;;;;5057219;28;20044;-67
2022/01/17 03:30:56;;;;;;;11.75;1.45;;;7.60;79.90;;;;;;5055348;28;20025;-66
2022/01/17 03:33:22;;;;;;;11.68;1.48;;;7.60;79.00;;;;;;5057770;28;20128;-67
2022/01/17 03:35:49;;;;;;;5.78;0.90;;;7.60;79.30;;;;;;5049804;28;20116;-67
2022/01/17 03:38:19;;;;;;;5.32;1.08;;;7.60;79.30;;;;;;5048277;28;20032;-67
2022/01/17 03:40:48;;;;;;;6.05;1.13;;;7.60;79.50;;;;;;5057951;28;20234;-66
2022/01/17 03:43:14;;;;;;;4.07;1.33;;;7.60;79.40;;;;;;5061654;28;20064;-67
2022/01/17 03:45:41;;;;;;;10.50;1.50;;;7.60;80.20;;;;;;5058738;28;20464;-67
2022/01/17 03:48:07;;;;;;;8.00;1.33;;;7.60;80.00;;;;;;5055676;28;20025;-66
2022/01/17 03:50:32;;;;;;;10.02;1.00;;;7.60;80.60;;;;;;5056633;28;20033;-66
2022/01/17 03:52:58;;;;;;;11.57;1.45;;;7.50;80.70;;;;;;5053891;28;20057;-66
2022/01/17 03:55:25;;;;;;;7.05;1.00;;;7.50;80.50;;;;;;5057641;28;20082;-66
2022/01/17 03:57:51;;;;;;;7.55;0.98;;;7.50;80.40;;;;;;5060055;28;20028;-66
2022/01/17 04:00:19;;;;;;;8.18;1.10;;;7.50;80.80;;;;;;5051168;28;20028;-66
2022/01/17 04:02:45;;;;;;;6.13;1.02;;;7.50;80.80;;;;;;5055609;28;20032;-66
2022/01/17 04:05:11;;;;;;;8.20;1.08;;;7.50;80.70;;;;;;5048091;28;20040;-66
2022/01/17 04:07:36;;;;;;;10.57;1.92;;;7.40;80.60;;;;;;5050590;28;20523;-66
2022/01/17 04:10:03;;;;;;;6.75;1.25;;;7.50;81.50;;;;;;5072149;28;20160;-66
2022/01/17 04:12:28;;;;;;;6.15;0.90;;;7.50;81.20;;;;;;5068021;28;20037;-66
2022/01/17 04:14:55;;;;;;;5.70;1.35;;;7.50;81.20;;;;;;5055953;28;20634;-66
2022/01/17 04:17:27;;;;;;;4.88;0.82;;;7.50;81.50;;;;;;5055941;28;20036;-66
2022/01/17 04:19:59;;;;;;;9.05;1.10;;;7.50;81.10;;;;;;5052115;28;20430;-65
2022/01/17 04:22:26;;;;;;;7.30;1.20;;;7.50;81.60;;;;;;5051632;28;20633;-66
2022/01/17 04:24:54;;;;;;;8.63;1.42;;;7.50;81.80;;;;;;5061997;28;20028;-66
2022/01/17 04:27:20;;;;;;;11.70;1.33;;;7.50;82.00;;;;;;5054697;28;20470;-65
2022/01/17 04:29:46;;;;;;;6.82;1.23;;;7.50;82.00;;;;;;5048597;28;20025;-66
2022/01/17 04:32:11;;;;;;;8.27;0.95;;;7.40;82.30;;;;;;5052791;28;20035;-66
2022/01/17 04:34:37;;;;;;;6.97;1.13;;;7.40;82.70;;;;;;5048157;28;20081;-66
2022/01/17 04:37:03;;;;;;;5.22;1.15;;;7.50;82.40;;;;;;5050612;28;20025;-67
2022/01/17 04:39:28;;;;;;;7.63;1.20;;;7.50;82.30;;;;;;5056262;28;20033;-66
2022/01/17 04:41:56;;;;;;;9.13;1.38;;;7.50;82.20;;;;;;5059114;28;20107;-66
2022/01/17 04:47:06;;;;;;;8.50;1.77;;;7.60;82.60;;;;;;5053394;28;20048;-67
2022/01/17 04:49:32;;;;;;;6.35;1.27;;;7.50;83.00;;;;;;5047594;28;20033;-66
2022/01/17 04:51:58;;;;;;;7.18;0.98;;;7.40;83.40;;;;;;5057130;28;20038;-67
2022/01/17 04:55:01;;;;;;;10.40;1.48;;;7.40;83.50;;;;;;5054695;28;20139;-66
2022/01/17 04:57:16;;;;;;;11.88;1.45;;;7.50;83.60;;;;;;5055028;28;20147;-67
2022/01/17 04:59:42;;;;;;;8.57;1.45;;;7.60;83.40;;;;;;5051034;28;20032;-66
2022/01/17 05:02:09;;;;;;;8.20;1.35;;;7.60;83.40;;;;;;5051345;28;20066;-66
2022/01/17 05:04:35;;;;;;;11.52;1.23;;;7.50;83.90;;;;;;5049774;28;20400;-66
2022/01/17 05:07:02;;;;;;;7.93;1.20;;;7.60;84.10;;;;;;5071708;28;20033;-67
2022/01/17 05:09:28;;;;;;;6.88;1.25;;;7.60;84.30;;;;;;5053781;28;20037;-66
2022/01/17 05:11:54;;;;;;;7.75;1.27;;;7.50;84.30;;;;;;5050883;28;20021;-66
2022/01/17 05:14:20;;;;;;;5.45;1.10;;;7.60;84.70;;;;;;5062764;28;20496;-66
2022/01/17 05:16:54;;;;;;;5.88;0.95;;;7.50;84.70;;;;;;5054514;28;20025;-66
2022/01/17 05:22:04;;;;;;;10.40;1.98;;;7.30;85.00;;;;;;5051650;28;20070;-66
2022/01/17 05:24:30;;;;;;;11.25;1.38;;;7.40;85.40;;;;;;5054386;28;20946;-66
2022/01/17 05:26:56;;;;;;;8.98;0.88;;;7.40;85.40;;;;;;5057094;28;20043;-65
2022/01/17 05:29:22;;;;;;;12.57;1.15;;;7.40;85.40;;;;;;5050195;28;20048;-66
2022/01/17 05:31:48;;;;;;;7.78;1.27;;;7.40;85.60;;;;;;5054094;28;20109;-66
2022/01/17 05:34:14;;;;;;;8.05;1.20;;;7.50;85.20;;;;;;5048940;28;20095;-66
2022/01/17 05:36:39;;;;;;;5.47;0.90;;;7.60;85.20;;;;;;5057933;28;20028;-65
2022/01/17 05:39:05;;;;;;;3.45;0.65;;;7.70;84.50;;;;;;5054069;28;20048;-65
2022/01/17 05:41:31;;;;;;;8.02;1.25;;;7.70;84.30;;;;;;5052432;28;20090;-66
2022/01/17 05:43:58;;;;;;;8.65;1.60;;;7.70;84.30;;;;;;5050925;28;20032;-66
2022/01/17 05:46:24;;;;;;;7.13;1.17;;;7.60;84.60;;;;;;5063819;28;20039;-65
2022/01/17 05:48:49;;;;;;;9.65;1.10;;;7.50;84.80;;;;;;5058149;28;20032;-66
2022/01/17 05:51:15;;;;;;;4.50;1.27;;;7.50;84.50;;;;;;5054574;28;20051;-66
2022/01/17 05:53:41;;;;;;;5.63;1.02;;;7.60;84.50;;;;;;5062152;28;20085;-67
2022/01/17 05:56:07;;;;;;;4.47;0.80;;;7.60;84.80;;;;;;5053455;28;20029;-66
2022/01/17 05:58:32;;;;;;;4.88;1.00;;;7.50;85.10;;;;;;5051158;28;20175;-67
2022/01/17 06:00:59;;;;;;;6.65;0.80;;;7.50;85.70;;;;;;5062783;28;20024;-66
2022/01/17 06:03:25;;;;;;;3.88;0.70;;;7.50;85.50;;;;;;5062819;28;20020;-66
2022/01/17 06:05:52;;;;;;;7.22;0.93;;;7.60;85.30;;;;;;5051592;28;20043;-66
2022/01/17 06:08:18;;;;;;;4.25;0.85;;;7.70;85.00;;;;;;5050069;28;20033;-66
2022/01/17 06:10:43;;;;;;;7.47;1.10;;;7.60;85.40;;;;;;5051002;28;20035;-67
2022/01/17 06:13:09;;;;;;;9.63;1.05;;;7.60;85.30;;;;;;5044986;28;20060;-66
2022/01/17 06:15:35;;;;;;;2.20;0.75;;;7.60;85.00;;;;;;5054627;28;20032;-67
2022/01/17 06:18:00;;;;;;;7.60;1.10;;;7.50;86.30;;;;;;5054488;28;20063;-66
2022/01/17 06:20:26;;;;;;;5.45;1.00;;;7.60;85.70;;;;;;5051734;28;20033;-66
2022/01/17 06:22:52;;;;;;;6.55;1.23;;;7.60;85.60;;;;;;5046069;28;20033;-66
2022/01/17 06:25:17;;;;;;;6.88;1.17;;;7.60;85.40;;;;;;5047046;28;20051;-66
2022/01/17 06:27:43;;;;;;;5.47;0.85;;;7.60;85.30;;;;;;5045411;28;20024;-67
2022/01/17 06:30:09;;;;;;;8.20;0.90;;;7.60;85.60;;;;;;5056163;28;20377;-66
2022/01/17 06:32:35;;;;;;;5.00;0.90;;;7.60;86.00;;;;;;5065107;28;20042;-66
2022/01/17 06:35:03;;;;;;;6.38;0.80;;;7.60;85.90;;;;;;5052737;28;20029;-66
2022/01/17 06:37:29;;;;;;;8.32;0.93;;;7.50;86.20;;;;;;5047786;28;20164;-67
2022/01/17 06:39:55;;;;;;;5.53;0.82;;;7.60;86.30;;;;;;5049402;28;20040;-66
2022/01/17 06:42:22;;;;;;;6.88;1.30;;;7.60;86.50;;;;;;5045446;28;20045;-66
2022/01/17 06:44:49;;;;;;;7.30;0.88;;;7.60;86.20;;;;;;5057518;28;20032;-66
2022/01/17 06:47:15;;;;;;;8.23;1.30;;;7.60;86.70;;;;;;5064157;28;20025;-67
2022/01/17 06:49:41;;;;;;;5.72;1.25;;;7.60;86.90;;;;;;5050032;28;20844;-66
2022/01/17 06:52:07;;;;;;;6.50;1.20;;;7.70;87.60;;;;;;5052800;28;20032;-66
2022/01/17 06:54:32;;;;;;;4.45;0.98;;;7.70;87.70;;;;;;5053216;28;20040;-66
2022/01/17 06:56:58;;;;;;;6.97;1.05;;;7.70;88.00;;;;;;5043389;28;20044;-66
2022/01/17 06:59:24;;;;;;;4.90;1.10;;;7.70;87.60;;;;;;5047803;28;20492;-66
2022/01/17 07:01:49;;;;;;;6.22;1.35;;;7.60;87.80;;;;;;5040917;28;20499;-66
2022/01/17 07:04:15;;;;;;;5.82;1.60;;;7.60;88.00;;;;;;5047044;28;20851;-66
2022/01/17 07:06:41;;;;;;;5.70;0.90;;;7.60;88.00;;;;;;5047045;28;20190;-66
2022/01/17 07:09:11;;;;;;;6.00;1.13;;;7.70;87.90;;;;;;5050003;28;20048;-66
2022/01/17 07:11:38;;;;;;;6.75;1.13;;;7.70;87.80;;;;;;5049514;28;20106;-67
2022/01/17 07:14:11;;;;;;;5.75;0.90;;;7.70;88.00;;;;;;5039643;28;20033;-66
2022/01/17 07:16:41;;;;;;;5.40;1.05;;;7.70;88.20;;;;;;5055411;28;20028;-66
2022/01/17 07:19:08;;;;;;;7.65;1.27;;;7.60;88.60;;;;;;5048899;28;20032;-67
2022/01/17 07:21:35;;;;;;;7.25;1.05;;;7.60;88.70;;;;;;5059285;28;20037;-67
2022/01/17 07:24:01;;;;;;;7.75;1.33;;;7.60;88.60;;;;;;5050019;28;20029;-66
2022/01/17 07:26:27;;;;;;;6.55;1.15;;;7.60;88.80;;;;;;5053915;28;20786;-66
2022/01/17 07:28:53;;;;;;;6.45;0.90;;;7.50;89.20;;;;;;5059050;28;20044;-66
2022/01/17 07:31:19;;;;;;;7.22;1.42;;;7.50;89.30;;;;;;5047461;28;20028;-66
2022/01/17 07:33:44;;;;;;;15.65;2.50;;;7.60;89.50;;;;;;5047936;28;20538;-66
2022/01/17 07:36:16;;;;;;;3.83;1.02;;;7.60;89.60;;;;;;5055057;28;20037;-66
2022/01/17 07:38:41;;;;;;;4.70;0.75;;;7.70;89.20;;;;;;5051011;28;20122;-66
2022/01/17 07:41:08;;;;;;;7.75;1.17;;;7.60;88.90;;;;;;5049178;28;20104;-67
2022/01/17 07:43:36;;;;;;;5.38;0.93;;;7.70;89.20;;;;;;5065578;28;20843;-67
2022/01/17 07:46:06;;;;;;;3.75;0.70;;;7.70;89.40;;;;;;5045418;28;20590;-66
2022/01/17 07:48:45;;;;;;;8.32;1.38;;;7.70;90.10;;;;;;5049318;28;20036;-66
2022/01/17 07:51:11;;;;;;;10.65;1.88;;;7.70;89.70;;;;;;5046040;28;20025;-66
2022/01/17 07:53:38;;;;;;;4.55;1.00;;;7.70;90.10;;;;;;5050626;28;20048;-66
2022/01/17 07:56:04;;;;;;;7.78;0.73;;;7.70;90.10;;;;;;5050111;28;20021;-66
2022/01/17 07:58:30;;;;;;;4.18;0.90;;;7.80;90.10;;;;;;5055486;28;20033;-65
2022/01/17 08:00:55;;;;;;;8.52;0.82;;;7.80;89.90;;;;;;5058362;28;20743;-66
2022/01/17 08:03:21;;;;;;;5.30;0.80;;;7.70;89.70;;;;;;5055720;28;20579;-66
2022/01/17 08:05:47;;;;;;;7.80;0.90;;;7.70;89.60;;;;;;5048977;28;20032;-66
2022/01/17 08:08:12;;;;;;;5.78;0.80;;;7.70;89.70;;;;;;5054837;28;20029;-66
2022/01/17 08:10:38;;;;;;;2.45;0.80;;;7.80;89.60;;;;;;5056694;28;20032;-66
2022/01/17 08:13:04;;;;;;;11.85;1.17;;;7.70;89.30;;;;;;5053557;28;20032;-66
2022/01/17 08:15:31;;;;;;;3.35;0.80;;;7.70;89.80;;;;;;5057056;28;20033;-66
2022/01/17 08:17:57;;;;;;;4.03;1.20;;;7.70;90.10;;;;;;5049455;28;20842;-66
2022/01/17 08:20:22;;;;;;;6.35;1.02;;;7.80;90.00;;;;;;5049415;28;20036;-66
2022/01/17 08:22:48;;;;;;;5.88;0.98;;;7.80;90.20;;;;;;5054251;28;20021;-65
2022/01/17 08:25:16;;;;;;;5.38;1.25;;;7.70;90.20;;;;;;5054594;28;20112;-66
2022/01/17 08:27:42;;;;;;;5.82;1.00;;;7.80;90.10;;;;;;5047184;28;20020;-66
2022/01/17 08:30:09;;;;;;;6.07;0.93;;;7.90;90.10;;;;;;5048457;28;20086;-67
2022/01/17 08:32:35;;;;;;;3.58;0.90;;;7.90;90.20;;;;;;5051330;28;20103;-66
2022/01/17 08:35:01;;;;;;;4.82;0.85;;;8.00;90.20;;;;;;5050843;28;20570;-66
2022/01/17 08:37:27;;;;;;;5.30;0.93;;;7.90;90.30;;;;;;5049670;28;20033;-66
2022/01/17 08:39:53;;;;;;;3.22;0.77;;;7.80;90.70;;;;;;5054670;28;20119;-67
2022/01/17 08:42:19;;;;;;;4.10;0.80;;;7.70;90.80;;;;;;5052955;28;20032;-65
2022/01/17 08:44:51;;;;;;;7.30;0.70;;;7.70;91.20;;;;;;5052851;28;20021;-66
2022/01/17 08:47:18;;;;;;;5.63;0.85;;;7.70;91.20;;;;;;5053053;28;20037;-66
2022/01/17 08:49:45;;;;;;;3.63;0.60;;;7.80;91.20;;;;;;5050810;28;20073;-66
2022/01/17 08:52:11;;;;;;;4.28;0.65;;;7.80;91.60;;;;;;5055008;28;20051;-66
2022/01/17 08:54:36;;;;;;;5.22;0.80;;;7.90;91.90;;;;;;5067972;28;20020;-66
2022/01/17 08:57:02;;;;;;;3.13;0.68;;;7.90;91.70;;;;;;5060967;28;20495;-66
2022/01/17 08:59:30;;;;;;;4.78;0.70;;;7.80;92.00;;;;;;5051122;28;20052;-65
2022/01/17 09:01:56;;;;;;;1.48;0.50;;;7.80;92.20;;;;;;5052667;28;20061;-64
2022/01/17 09:04:21;;;;;;;5.15;0.90;;;7.80;92.10;;;;;;5057929;28;20141;-66
2022/01/17 09:06:47;;;;;;;2.05;0.90;;;7.70;92.20;;;;;;5054287;28;20036;-66
2022/01/17 09:09:13;;;;;;;6.50;1.23;;;7.70;92.30;;;;;;5053563;28;20033;-66
2022/01/17 09:11:38;;;;;;;7.65;1.77;;;7.80;92.50;;;;;;5049088;28;20140;-66
2022/01/17 09:14:04;;;;;;;6.40;1.30;;;7.90;92.40;;;;;;5047986;28;20028;-66
2022/01/17 09:16:30;;;;;;;7.93;0.73;;;7.90;92.40;;;;;;5054878;28;20033;-67
2022/01/17 09:18:56;;;;;;;1.67;0.52;;;7.90;92.70;;;;;;5062056;28;20085;-67
2022/01/17 09:21:22;;;;;;;2.33;0.50;;;7.90;92.70;;;;;;5053029;28;20487;-63
2022/01/17 09:23:49;;;;;;;3.75;0.95;;;7.90;92.40;;;;;;5052821;28;20032;-66
2022/01/17 09:26:15;;;;;;;2.65;0.75;;;8.00;92.40;;;;;;5048705;28;20033;-66
2022/01/17 09:28:42;;;;;;;3.20;0.80;;;8.00;92.20;;;;;;5048273;28;20446;-65
2022/01/17 09:31:08;;;;;;;10.85;1.27;;;8.10;92.60;;;;;;5047137;28;20040;-65
2022/01/17 09:33:35;;;;;;;2.60;0.90;;;8.10;92.50;;;;;;5051839;28;20025;-65
2022/01/17 09:36:01;;;;;;;4.10;0.80;;;8.10;92.30;;;;;;5049492;28;20128;-64
2022/01/17 09:38:27;;;;;;;7.50;0.95;;;8.10;92.20;;;;;;5044625;28;20459;-65
2022/01/17 09:40:52;;;;;;;1.23;0.40;;;8.20;92.40;;;;;;5047678;28;20067;-65
2022/01/17 09:43:18;;;;;;;2.17;0.70;;;8.10;92.40;;;;;;5073258;28;20044;-65
2022/01/17 09:45:44;;;;;;;4.50;0.63;;;8.10;92.70;;;;;;5054649;28;20025;-66
2022/01/17 09:48:18;;;;;;;1.23;0.40;;;8.00;93.00;;;;;;5054093;28;20059;-66
2022/01/17 09:51:00;;;;;;;2.42;0.80;;;8.10;93.10;;;;;;5049763;28;20040;-66
2022/01/17 09:53:28;;;;;;;5.93;0.88;;;8.00;93.30;;;;;;5050137;28;20047;-66
2022/01/17 09:56:03;;;;;;;2.50;0.60;;;8.00;93.40;;;;;;5044755;28;20040;-66
2022/01/17 09:58:30;;;;;;;2.25;0.55;;;8.00;93.50;;;;;;5045750;28;20573;-65
2022/01/17 10:00:56;;;;;;;4.93;0.80;;;8.00;93.60;;;;;;5051923;28;20385;-68
2022/01/17 10:03:22;;;;;;;2.17;0.63;;;8.00;93.70;;;;;;5050329;28;20025;-66
2022/01/17 10:05:48;;;;;;;8.07;1.20;;;8.00;93.80;;;;;;5048100;28;20029;-66
2022/01/17 10:08:16;;;;;;;2.50;1.10;;;8.00;93.90;;;;;;5066778;28;20044;-65
2022/01/17 10:10:57;;;;;;;3.50;1.42;;;8.00;93.90;;;;;;5056677;28;20033;-66
2022/01/17 10:13:42;;;;;;;4.20;0.68;;;8.10;93.90;;;;;;5059071;28;20491;-66
2022/01/17 10:16:20;;;;;;;2.75;0.68;;;8.10;93.70;;;;;;5048219;28;20032;-66
2022/01/17 10:19:01;;;;;;;4.97;0.85;;;8.20;93.80;;;;;;5063229;28;20035;-65
2022/01/17 10:21:37;;;;;;;4.88;1.13;;;8.20;93.90;;;;;;5053169;28;20063;-66
2022/01/17 10:26:57;;;;;;;5.35;0.68;;;8.00;93.70;;;;;;5051790;28;19989;-66
2022/01/17 10:35:18;;;;;;;2.90;1.23;;;7.90;92.80;;;;;;5051797;28;20846;-66
2022/01/17 10:38:10;;;;;;;6.22;2.30;;;7.70;92.70;;;;;;5051109;28;20166;-66
2022/01/17 10:40:49;;;;;;;4.18;1.15;;;7.60;92.70;;;;;;5054166;28;20036;-66
2022/01/17 10:43:25;;;;;;;8.13;1.95;;;7.50;92.80;;;;;;5051262;28;20047;-67
2022/01/17 10:45:51;;;;;;;7.15;1.17;;;7.30;92.80;;;;;;5053073;28;20036;-66
2022/01/17 10:48:17;;;;;;;4.35;1.20;;;7.40;93.30;;;;;;5047595;28;20115;-66
2022/01/17 10:50:48;;;;;;;7.55;1.10;;;7.40;93.20;;;;;;5045823;28;20115;-67
2022/01/17 10:53:18;;;;;;;8.77;3.08;;;7.40;93.20;;;;;;5047220;28;20040;-66
2022/01/17 10:55:56;;;;;;;8.32;2.85;;;7.50;93.00;;;;;;5054658;28;20035;-66
2022/01/17 10:58:31;;;;;;;14.48;5.85;;;7.60;92.90;;;;;;5055202;28;20161;-65
2022/01/17 11:01:03;;;;;;;14.98;6.53;;;7.70;92.90;;;;;;5051481;28;20021;-65
2022/01/17 11:03:33;;;;;;;15.02;4.95;;;7.80;92.80;;;;;;5051225;28;20648;-65
2022/01/17 11:06:09;;;;;;;6.25;1.88;;;7.90;92.80;;;;;;5044311;28;20033;-65
2022/01/17 11:08:35;;;;;;;5.45;0.82;;;8.00;92.60;;;;;;5048595;28;20033;-66
2022/01/17 11:11:05;;;;;;;8.45;1.92;;;8.00;92.10;;;;;;5057035;28;20071;-66
2022/01/17 11:13:37;;;;;;;8.23;1.67;;;8.10;92.10;;;;;;5049271;28;20060;-67
2022/01/17 11:16:11;;;;;;;4.07;1.20;;;8.10;91.90;;;;;;5049434;28;20040;-65
2022/01/17 11:18:40;;;;;;;17.10;4.53;;;8.10;91.50;;;;;;5050908;28;20400;-66
2022/01/17 11:21:13;;;;;;;15.98;4.53;;;8.10;91.50;;;;;;5045736;28;20059;-65
2022/01/17 11:23:43;;;;;;;8.60;2.42;;;8.10;91.50;;;;;;5052318;28;20185;-66
2022/01/17 11:26:09;;;;;;;6.18;1.52;;;8.30;91.80;;;;;;5055304;28;20032;-66
2022/01/17 11:28:36;;;;;;;12.15;1.75;;;8.40;91.40;;;;;;5050924;28;20045;-66
2022/01/17 11:31:07;;;;;;;10.70;2.15;;;8.50;91.70;;;;;;5048514;28;20492;-65
2022/01/17 11:33:34;;;;;;;4.38;1.13;;;8.60;91.60;;;;;;5048296;28;20025;-66
2022/01/17 11:36:00;;;;;;;3.63;1.30;;;8.80;91.30;;;;;;5044818;28;20828;-66
2022/01/17 11:38:30;;;;;;;6.10;1.40;;;9.00;90.80;;;;;;5054187;28;20186;-66
2022/01/17 11:40:58;;;;;;;8.65;1.80;;;9.10;90.70;;;;;;5051367;28;20029;-67
2022/01/17 11:43:37;;;;;;;9.07;1.63;;;9.20;90.30;;;;;;5055251;28;20033;-67
2022/01/17 11:46:43;;;;;;;9.70;1.42;;;9.30;89.80;;;;;;5053997;28;20021;-67
2022/01/17 11:49:10;;;;;;;17.45;1.88;;;9.20;87.10;;;;;;5036801;28;20069;-66
2022/01/17 11:51:46;;;;;;;10.43;1.50;;;9.10;85.30;;;;;;5055840;28;20032;-66
2022/01/17 11:54:17;;;;;;;3.78;1.15;;;9.00;86.80;;;;;;5054225;28;20051;-67
2022/01/17 11:56:57;;;;;;;10.00;1.60;;;9.00;86.30;;;;;;5055277;28;20037;-67
2022/01/17 11:59:24;;;;;;;10.15;1.90;;;9.00;86.40;;;;;;5051280;28;20036;-67
2022/01/17 12:02:16;;;;;;;5.53;1.40;;;9.00;86.90;;;;;;5054306;28;20039;-68
2022/01/17 12:05:08;;;;;;;11.45;1.55;;;8.90;86.60;;;;;;5059056;28;20547;-67
2022/01/17 12:07:37;;;;;;;10.00;1.65;;;8.80;87.30;;;;;;5055051;28;20064;-67
2022/01/17 12:10:08;;;;;;;5.45;1.50;;;8.80;87.30;;;;;;5056779;28;20039;-66
2022/01/17 12:12:34;;;;;;;16.02;2.15;;;8.70;85.80;;;;;;5061136;28;20488;-68
2022/01/17 12:15:05;;;;;;;10.82;1.10;;;8.40;84.00;;;;;;5049964;28;20037;-67
2022/01/17 12:17:31;;;;;;;7.03;1.40;;;8.30;84.70;;;;;;5047542;28;20032;-67
2022/01/17 12:20:03;;;;;;;6.82;1.17;;;8.20;84.00;;;;;;5050997;28;20042;-66
2022/01/17 12:22:30;;;;;;;5.13;0.98;;;8.10;84.00;;;;;;5055813;28;20116;-66
2022/01/17 12:24:56;;;;;;;9.05;1.20;;;8.00;84.10;;;;;;5052963;28;20416;-66
2022/01/17 12:27:26;;;;;;;9.23;1.50;;;7.70;83.90;;;;;;5060460;28;20033;-65
2022/01/17 12:30:12;;;;;;;5.85;1.20;;;7.20;84.80;;;;;;5048214;28;20039;-65
2022/01/17 12:32:39;;;;;;;4.97;1.02;;;7.00;86.50;;;;;;5055205;28;20025;-67
2022/01/17 12:35:05;;;;;;;3.30;0.90;;;7.00;87.40;;;;;;5065770;28;20017;-67
2022/01/17 12:37:39;;;;;;;6.85;0.80;;;7.00;87.80;;;;;;5052865;28;20510;-65
2022/01/17 12:40:36;;;;;;;6.38;1.20;;;7.00;87.30;;;;;;5051547;28;20628;-65
2022/01/17 12:43:13;;;;;;;5.53;1.27;;;7.00;88.40;;;;;;5053621;28;20078;-64
2022/01/17 12:45:48;;;;;;;6.85;0.98;;;7.00;88.70;;;;;;5047637;28;20112;-64
2022/01/17 12:48:20;;;;;;;5.25;1.00;;;6.90;88.90;;;;;;5057162;28;20500;-66
2022/01/17 12:50:47;;;;;;;3.22;0.70;;;7.00;88.90;;;;;;5059170;28;20032;-65
2022/01/17 12:53:18;;;;;;;7.15;1.75;;;7.00;89.00;;;;;;5051532;28;20029;-65
2022/01/17 12:55:47;;;;;;;4.53;1.17;;;6.90;89.40;;;;;;5049941;28;20023;-66
2022/01/17 12:58:35;;;;;;;3.70;0.95;;;6.90;89.90;;;;;;5055404;28;20566;-66
2022/01/17 13:01:07;;;;;;;6.68;1.00;;;6.90;90.20;;;;;;5051840;28;20115;-66
2022/01/17 13:03:36;;;;;;;11.95;1.50;;;6.90;90.00;;;;;;5067444;28;20038;-68
2022/01/17 13:06:08;;;;;;;6.45;1.63;;;6.90;89.20;;;;;;5048882;28;20035;-66
2022/01/17 13:08:34;;;;;;;3.40;0.60;;;6.80;89.60;;;;;;5053857;28;20043;-65
2022/01/17 13:11:11;;;;;;;7.95;1.50;;;6.80;89.80;;;;;;5047300;28;20055;-65
2022/01/17 13:13:43;;;;;;;;;;;6.80;90.00;;;;;;5050556;28;20392;-69
2022/01/17 13:16:10;;;;;;;5.78;1.65;;;6.70;90.00;;;;;;5052534;28;19916;-68
2022/01/17 13:18:36;;;;;;;6.97;1.02;;;6.70;90.30;;;;;;5052940;28;20545;-66
2022/01/17 13:21:04;;;;;;;3.88;0.93;;;6.70;90.30;;;;;;5048545;28;20037;-67
2022/01/17 13:23:41;;;;;;;2.85;0.95;;;6.70;90.00;;;;;;5070615;28;20073;-66